Emma Miller — WDE7441 — position and weather

sailwx.info

Track history (hours):
 
Tides and Currents Weather Stations Pressure Air Temp Water Temp Dewpoint Dewpoint Depression Visibility Wind Speed Wind Dir Waves Ship Positions

Emma Miller

Owner: Marine Oil Service of New York, Elizabeth, NJ. More information available from US FCC via Universal Licensing System and Coast Guard Vessel Documentation Center.

Last reported at 2017-Sep-17 20:54 UTC. Time now 2017-Sep-19 18:32 UTC.
Position N 40°38' W 074°12'.

Length 25 m; draft 1.7 m.

Type: Tanker. MMSI: 367393330.

Date/timePositionNaut miles runAvg speedWind from/ knotsBaromVisibWave heightAir tempDewpointWater temp
2017-Sep-17 20:54N 40°38' W 074°12'2 5.8
2017-Sep-17 20:30N 40°39' W 074°09'4 8.7
2017-Sep-17 20:00N 40°39' W 074°03'0 1.0
2017-Sep-17 19:30N 40°39' W 074°03'3 5.4
2017-Sep-17 19:00N 40°41' W 074°01'0 0.0
2017-Sep-17 18:30N 40°41' W 074°01'0 0.0
2017-Sep-17 18:00N 40°41' W 074°01'0 0.0
2017-Sep-17 17:30N 40°41' W 074°01'0 0.0
2017-Sep-17 17:00N 40°41' W 074°01'1 1.3
2017-Sep-17 16:30N 40°42' W 074°01'4 8.6
2017-Sep-17 16:00N 40°46' W 074°00'0 0.0
2017-Sep-17 15:30N 40°46' W 074°00'0 0.1
2017-Sep-17 15:00N 40°46' W 074°00'0 0.0
2017-Sep-17 14:30N 40°46' W 074°00'0 0.1
2017-Sep-17 14:00N 40°46' W 074°00'0 0.2
2017-Sep-17 13:31N 40°46' W 074°00'0 0.0
2017-Sep-17 13:00N 40°46' W 074°00'1 2.2
2017-Sep-17 12:30N 40°45' W 074°01'4 7.7
2017-Sep-17 12:00N 40°41' W 074°02'4 7.6
2017-Sep-17 11:26N 40°39' W 074°07'3 8.1
2017-Sep-17 11:00N 40°38' W 074°12'0 0.0
2017-Sep-16 22:38N 40°39' W 074°11'1 7.6
2017-Sep-16 22:29N 40°39' W 074°10'2 4.9
2017-Sep-16 22:00N 40°41' W 074°09'0 0.1
2017-Sep-16 21:30N 40°41' W 074°09'0 0.2
2017-Sep-16 21:00N 40°41' W 074°09'3 5.5
2017-Sep-16 20:30N 40°39' W 074°07'3 5.6
2017-Sep-16 20:00N 40°38' W 074°04'0 0.0
2017-Sep-16 19:30N 40°38' W 074°04'0 0.0
2017-Sep-16 19:00N 40°38' W 074°04'0 0.0
2017-Sep-16 18:30N 40°38' W 074°04'0 0.7
2017-Sep-16 18:00N 40°38' W 074°04'1 1.0
2017-Sep-16 17:30N 40°39' W 074°03'2 3.1
2017-Sep-16 17:00N 40°39' W 074°06'4 7.6
2017-Sep-16 16:30N 40°39' W 074°11'1 0.1
2017-Sep-16 09:42N 40°38' W 074°12'1 3.3
2017-Sep-16 09:30N 40°39' W 074°11'4 8.2
2017-Sep-16 09:00N 40°39' W 074°06'4 8.0
2017-Sep-16 08:30N 40°36' W 074°02'1 1.7
2017-Sep-16 08:00N 40°35' W 074°02'0 0.0
2017-Sep-16 07:30N 40°35' W 074°02'0 0.1
2017-Sep-16 07:00N 40°35' W 074°02'0 0.1
2017-Sep-16 06:30N 40°35' W 074°02'1 2.5
2017-Sep-16 06:00N 40°36' W 074°02'4 7.0
2017-Sep-16 05:30N 40°39' W 074°06'4 6.9
2017-Sep-16 05:00N 40°39' W 074°10'1 0.0
2017-Sep-14 19:17N 40°38' W 074°12'0 1.6
2017-Sep-14 19:00N 40°39' W 074°11'0 0.1
2017-Sep-14 18:30N 40°39' W 074°11'0 0.0
2017-Sep-14 18:00N 40°39' W 074°11'0 0.9
2017-Sep-14 17:30N 40°38' W 074°12'0 0.0
2017-Sep-14 15:41N 40°38' W 074°12'0 0.1
2017-Sep-14 15:30N 40°38' W 074°12'0 0.0
2017-Sep-14 02:26N 40°38' W 074°12'2 4.9
2017-Sep-14 02:00N 40°39' W 074°09'1 2.5
2017-Sep-14 01:30N 40°40' W 074°09'0 0.0
2017-Sep-14 01:00N 40°40' W 074°09'0 0.1
2017-Sep-14 00:30N 40°40' W 074°09'0 0.0
2017-Sep-14 00:00N 40°40' W 074°09'0 0.7
2017-Sep-13 23:30N 40°40' W 074°09'0 0.5
2017-Sep-13 23:00N 40°40' W 074°09'0 0.3
2017-Sep-13 22:30N 40°40' W 074°09'0 0.0
2017-Sep-13 22:00N 40°40' W 074°09'0 0.0
2017-Sep-13 21:30N 40°40' W 074°09'0 0.0
2017-Sep-13 21:00N 40°40' W 074°09'0 0.4
2017-Sep-13 20:31N 40°40' W 074°09'3 5.0
2017-Sep-13 20:00N 40°38' W 074°12'3 5.7
2017-Sep-13 19:29N 40°39' W 074°08'3 6.5
2017-Sep-13 19:00N 40°39' W 074°04'0 0.0
2017-Sep-13 18:31N 40°39' W 074°04'2 4.2
2017-Sep-13 18:00N 40°39' W 074°07'4 7.8
2017-Sep-13 17:30N 40°38' W 074°12'  
Track history (hours):
 
Tides and Currents Weather Stations Pressure Air Temp Water Temp Dewpoint Dewpoint Depression Visibility Wind Speed Wind Dir Waves Ship Positions

Emma Miller

Owner: Marine Oil Service of New York, Elizabeth, NJ. More information available from US FCC via Universal Licensing System and Coast Guard Vessel Documentation Center.

Last reported at 2017-Sep-17 20:54 UTC. Time now 2017-Sep-19 18:32 UTC.
Position N 40°38' W 074°12'.

Length 25 m; draft 1.7 m.

Type: Tanker. MMSI: 367393330.

Date/timePositionNaut miles runAvg speedWind from/ knotsBaromVisibWave heightAir tempDewpointWater temp
2017-Sep-17 20:54N 40°38' W 074°12'2 5.8
2017-Sep-17 20:30N 40°39' W 074°09'4 8.7
2017-Sep-17 20:00N 40°39' W 074°03'0 1.0
2017-Sep-17 19:30N 40°39' W 074°03'3 5.4
2017-Sep-17 19:00N 40°41' W 074°01'0 0.0
2017-Sep-17 18:30N 40°41' W 074°01'0 0.0
2017-Sep-17 18:00N 40°41' W 074°01'0 0.0
2017-Sep-17 17:30N 40°41' W 074°01'0 0.0
2017-Sep-17 17:00N 40°41' W 074°01'1 1.3
2017-Sep-17 16:30N 40°42' W 074°01'4 8.6
2017-Sep-17 16:00N 40°46' W 074°00'0 0.0
2017-Sep-17 15:30N 40°46' W 074°00'0 0.1
2017-Sep-17 15:00N 40°46' W 074°00'0 0.0
2017-Sep-17 14:30N 40°46' W 074°00'0 0.1
2017-Sep-17 14:00N 40°46' W 074°00'0 0.2
2017-Sep-17 13:31N 40°46' W 074°00'0 0.0
2017-Sep-17 13:00N 40°46' W 074°00'1 2.2
2017-Sep-17 12:30N 40°45' W 074°01'4 7.7
2017-Sep-17 12:00N 40°41' W 074°02'4 7.6
2017-Sep-17 11:26N 40°39' W 074°07'3 8.1
2017-Sep-17 11:00N 40°38' W 074°12'0 0.0
2017-Sep-16 22:38N 40°39' W 074°11'1 7.6
2017-Sep-16 22:29N 40°39' W 074°10'2 4.9
2017-Sep-16 22:00N 40°41' W 074°09'0 0.1
2017-Sep-16 21:30N 40°41' W 074°09'0 0.2
2017-Sep-16 21:00N 40°41' W 074°09'3 5.5
2017-Sep-16 20:30N 40°39' W 074°07'3 5.6
2017-Sep-16 20:00N 40°38' W 074°04'0 0.0
2017-Sep-16 19:30N 40°38' W 074°04'0 0.0
2017-Sep-16 19:00N 40°38' W 074°04'0 0.0
2017-Sep-16 18:30N 40°38' W 074°04'0 0.7
2017-Sep-16 18:00N 40°38' W 074°04'1 1.0
2017-Sep-16 17:30N 40°39' W 074°03'2 3.1
2017-Sep-16 17:00N 40°39' W 074°06'4 7.6
2017-Sep-16 16:30N 40°39' W 074°11'1 0.1
2017-Sep-16 09:42N 40°38' W 074°12'1 3.3
2017-Sep-16 09:30N 40°39' W 074°11'4 8.2
2017-Sep-16 09:00N 40°39' W 074°06'4 8.0
2017-Sep-16 08:30N 40°36' W 074°02'1 1.7
2017-Sep-16 08:00N 40°35' W 074°02'0 0.0
2017-Sep-16 07:30N 40°35' W 074°02'0 0.1
2017-Sep-16 07:00N 40°35' W 074°02'0 0.1
2017-Sep-16 06:30N 40°35' W 074°02'1 2.5
2017-Sep-16 06:00N 40°36' W 074°02'4 7.0
2017-Sep-16 05:30N 40°39' W 074°06'4 6.9
2017-Sep-16 05:00N 40°39' W 074°10'1 0.0
2017-Sep-14 19:17N 40°38' W 074°12'0 1.6
2017-Sep-14 19:00N 40°39' W 074°11'0 0.1
2017-Sep-14 18:30N 40°39' W 074°11'0 0.0
2017-Sep-14 18:00N 40°39' W 074°11'0 0.9
2017-Sep-14 17:30N 40°38' W 074°12'0 0.0
2017-Sep-14 15:41N 40°38' W 074°12'0 0.1
2017-Sep-14 15:30N 40°38' W 074°12'0 0.0
2017-Sep-14 02:26N 40°38' W 074°12'2 4.9
2017-Sep-14 02:00N 40°39' W 074°09'1 2.5
2017-Sep-14 01:30N 40°40' W 074°09'0 0.0
2017-Sep-14 01:00N 40°40' W 074°09'0 0.1
2017-Sep-14 00:30N 40°40' W 074°09'0 0.0
2017-Sep-14 00:00N 40°40' W 074°09'0 0.7
2017-Sep-13 23:30N 40°40' W 074°09'0 0.5
2017-Sep-13 23:00N 40°40' W 074°09'0 0.3
2017-Sep-13 22:30N 40°40' W 074°09'0 0.0
2017-Sep-13 22:00N 40°40' W 074°09'0 0.0
2017-Sep-13 21:30N 40°40' W 074°09'0 0.0
2017-Sep-13 21:00N 40°40' W 074°09'0 0.4
2017-Sep-13 20:31N 40°40' W 074°09'3 5.0
2017-Sep-13 20:00N 40°38' W 074°12'3 5.7
2017-Sep-13 19:29N 40°39' W 074°08'3 6.5
2017-Sep-13 19:00N 40°39' W 074°04'0 0.0
2017-Sep-13 18:31N 40°39' W 074°04'2 4.2
2017-Sep-13 18:00N 40°39' W 074°07'4 7.8
2017-Sep-13 17:30N 40°38' W 074°12'  

Dump ship's entire track history